Time;durP1;ratioP1;P1;durP2;ratioP2;P2;SDS_P1;SDS_P2;PMS_P1;PMS_P2;Temp;Humidity;BMP_temperature;BMP_pressure;BME280_temperature;BME280_humidity;BME280_pressure;Samples;Min_cycle;Max_cycle;Signal;HPM_P1;HPM_P2
2022/07/15 00:01:01;;;;;;;2.25;1.02;;;;;;;22.98;42.00;102164.50;5068611;28;20025;-60
2022/07/15 00:03:26;;;;;;;3.60;1.60;;;;;;;23.15;41.78;102198.78;5067465;28;20043;-60
2022/07/15 00:05:51;;;;;;;2.20;1.00;;;;;;;22.95;41.81;102165.69;5068580;28;20028;-60
2022/07/15 00:08:16;;;;;;;2.90;1.05;;;;;;;23.13;41.86;102189.97;5067604;28;20028;-60
2022/07/15 00:10:42;;;;;;;2.42;0.93;;;;;;;23.13;41.72;102198.13;5050454;28;20029;-60
2022/07/15 00:13:07;;;;;;;3.30;1.00;;;;;;;23.11;41.92;102192.88;5067687;28;20075;-60
2022/07/15 00:15:32;;;;;;;2.33;0.90;;;;;;;23.10;41.65;102191.16;5067436;28;20041;-60
2022/07/15 00:18:01;;;;;;;1.95;0.70;;;;;;;23.10;41.81;102187.59;5067014;28;20025;-60
2022/07/15 00:20:26;;;;;;;;;;;;;;;23.08;41.81;102182.34;5067939;28;20051;-59
2022/07/15 00:22:52;;;;;;;2.28;0.70;;;;;;;23.05;41.69;102169.09;5068240;28;19913;-60
2022/07/15 00:25:17;;;;;;;2.58;1.15;;;;;;;23.04;42.02;102183.69;5067239;28;20029;-60
2022/07/15 00:27:52;;;;;;;2.28;0.90;;;;;;;23.04;41.88;102182.84;5066607;28;20084;-61
2022/07/15 00:30:18;;;;;;;3.25;0.90;;;;;;;23.03;41.70;102190.13;5067288;28;20035;-60
2022/07/15 00:32:43;;;;;;;5.10;0.90;;;;;;;22.86;41.90;102158.50;5067850;28;20021;-60
2022/07/15 00:35:08;;;;;;;2.70;0.80;;;;;;;23.01;41.30;102192.13;5066901;28;20406;-59
2022/07/15 00:37:34;;;;;;;1.67;0.85;;;;;;;22.97;41.80;102189.94;5086513;28;20058;-60
2022/07/15 00:40:00;;;;;;;2.53;0.60;;;;;;;22.99;41.91;102191.47;5086818;28;20017;-59
2022/07/15 00:42:44;;;;;;;2.17;0.85;;;;;;;22.97;41.67;102187.22;5087212;28;20033;-60
2022/07/15 00:45:20;;;;;;;2.83;1.17;;;;;;;22.97;41.60;102185.34;5087927;28;20075;-60
2022/07/15 00:47:48;;;;;;;2.45;0.90;;;;;;;22.94;41.32;102188.41;5069894;28;20036;-60
2022/07/15 00:50:15;;;;;;;3.33;1.13;;;;;;;22.94;41.48;102191.97;5086901;28;20020;-60
2022/07/15 00:52:44;;;;;;;2.17;0.85;;;;;;;22.93;41.69;102181.25;5087562;28;20273;-60
2022/07/15 00:55:10;;;;;;;;;;;;;;;22.91;41.46;102177.88;5086929;28;20096;-59
2022/07/15 00:57:40;;;;;;;3.03;1.05;;;;;;;22.90;41.27;102179.75;5085936;28;19912;-59
2022/07/15 01:00:08;;;;;;;3.95;1.67;;;;;;;22.89;41.34;102169.00;5086654;28;20531;-60
2022/07/15 01:02:34;;;;;;;2.47;0.60;;;;;;;22.87;41.49;102168.34;5078709;28;20048;-60
2022/07/15 01:05:00;;;;;;;2.50;0.90;;;;;;;22.87;41.59;102165.63;5079975;28;20269;-59
2022/07/15 01:07:26;;;;;;;1.15;0.52;;;;;;;22.85;41.72;102165.81;5071763;28;20082;-60
2022/07/15 01:09:51;;;;;;;1.85;0.82;;;;;;;22.85;41.84;102171.22;5066175;28;20033;-60
2022/07/15 01:12:16;;;;;;;2.50;0.80;;;;;;;22.84;41.63;102174.94;5067033;28;20025;-60
2022/07/15 01:14:42;;;;;;;1.80;0.75;;;;;;;22.83;41.54;102180.53;5067114;28;20055;-60
2022/07/15 01:17:10;;;;;;;2.58;1.10;;;;;;;22.80;41.76;102184.41;5065997;28;20115;-60
2022/07/15 01:19:36;;;;;;;1.77;0.70;;;;;;;22.81;41.53;102183.41;5075620;28;20047;-60
2022/07/15 01:22:02;;;;;;;4.40;1.33;;;;;;;22.80;41.68;102180.84;5086004;28;20509;-60
2022/07/15 01:24:27;;;;;;;3.33;0.90;;;;;;;22.80;41.83;102189.81;5087415;28;20039;-59
2022/07/15 01:26:52;;;;;;;2.40;0.80;;;;;;;22.80;41.88;102192.53;5087154;28;20032;-60
2022/07/15 01:29:18;;;;;;;2.47;0.80;;;;;;;22.57;42.10;102150.78;5086946;28;20103;-59
2022/07/15 01:31:43;;;;;;;3.75;1.25;;;;;;;22.79;42.03;102190.84;5085839;28;20031;-60
2022/07/15 01:34:09;;;;;;;3.10;0.82;;;;;;;22.78;41.97;102186.44;5087402;28;20405;-59
2022/07/15 01:36:34;;;;;;;2.35;0.98;;;;;;;22.79;42.01;102190.00;5077132;28;20017;-60
2022/07/15 01:38:59;;;;;;;3.65;1.30;;;;;;;22.76;41.96;102196.59;5065881;28;20033;-60
2022/07/15 01:41:24;;;;;;;4.88;1.30;;;;;;;22.76;41.89;102196.59;5048738;28;20029;-60
2022/07/15 01:43:50;;;;;;;3.90;1.50;;;;;;;22.77;42.22;102190.19;5064807;28;20119;-60
2022/07/15 01:46:15;;;;;;;2.95;1.10;;;;;;;22.76;41.96;102188.47;5066889;28;20049;-60
2022/07/15 01:51:32;;;;;;;1.88;0.80;;;;;;;22.75;42.14;102199.47;5065459;28;20105;-60
2022/07/15 01:53:57;;;;;;;1.40;0.80;;;;;;;22.74;42.46;102195.06;5066740;28;20025;-61
2022/07/15 01:56:23;;;;;;;2.80;0.93;;;;;;;22.74;42.39;102190.50;5066539;28;20371;-60
2022/07/15 01:58:48;;;;;;;1.13;0.80;;;;;;;22.72;42.52;102189.78;5066228;28;20025;-60
2022/07/15 02:01:13;;;;;;;2.30;0.77;;;;;;;22.73;42.39;102193.38;5066351;28;20033;-60
2022/07/15 02:03:39;;;;;;;2.50;0.82;;;;;;;22.73;42.23;102196.09;5066640;28;20025;-60
2022/07/15 02:06:05;;;;;;;1.48;1.00;;;;;;;22.73;42.49;102193.38;5066295;28;20500;-61
2022/07/15 02:08:30;;;;;;;1.63;0.95;;;;;;;22.53;42.51;102160.25;5065415;28;20474;-60
2022/07/15 02:10:55;;;;;;;3.33;1.15;;;;;;;22.73;42.42;102196.09;5076614;28;20043;-60
2022/07/15 02:13:21;;;;;;;2.45;1.10;;;;;;;22.55;42.62;102166.34;5084472;28;20020;-61
2022/07/15 02:15:46;;;;;;;4.28;1.20;;;;;;;22.71;42.54;102185.38;5085219;28;20047;-60
2022/07/15 02:18:12;;;;;;;3.38;1.40;;;;;;;22.70;42.59;102183.69;5084383;28;20731;-60
2022/07/15 02:20:37;;;;;;;3.67;1.10;;;;;;;22.60;42.59;102178.41;5086413;28;20028;-60
2022/07/15 02:23:02;;;;;;;3.25;0.95;;;;;;;22.68;42.67;102183.00;5086007;28;20095;-60
2022/07/15 02:25:30;;;;;;;1.40;0.63;;;;;;;22.46;42.67;102160.88;5086147;28;20082;-60
2022/07/15 02:28:00;;;;;;;3.55;1.08;;;;;;;22.68;42.76;102185.72;5084492;28;20031;-60
2022/07/15 02:30:32;;;;;;;3.03;1.23;;;;;;;22.65;42.70;102178.78;5084968;28;20060;-61
2022/07/15 02:32:57;;;;;;;2.47;1.08;;;;;;;22.41;42.65;102143.41;5085826;28;20021;-60
2022/07/15 02:35:23;;;;;;;1.95;1.00;;;;;;;22.66;42.81;102191.31;5084883;28;20028;-61
2022/07/15 02:37:49;;;;;;;4.28;1.13;;;;;;;22.65;43.00;102181.47;5084333;28;20036;-60
2022/07/15 02:40:14;;;;;;;0.90;0.50;;;;;;;22.48;42.82;102155.31;5084479;28;20024;-60
2022/07/15 02:42:46;;;;;;;2.95;1.00;;;;;;;22.65;43.00;102184.19;5084861;28;20120;-60
2022/07/15 02:45:12;;;;;;;1.83;0.60;;;;;;;22.65;43.19;102188.75;5085501;28;20044;-60
2022/07/15 02:47:37;;;;;;;5.20;1.15;;;;;;;22.64;43.20;102182.50;5084792;28;20158;-60
2022/07/15 02:50:02;;;;;;;2.58;0.90;;;;;;;22.64;43.20;102187.91;5083631;28;20024;-60
2022/07/15 02:52:28;;;;;;;3.05;1.15;;;;;;;22.42;43.10;102153.22;5066471;28;20088;-60
2022/07/15 02:54:53;;;;;;;3.78;0.88;;;;;;;22.64;43.05;102187.91;5083591;28;20036;-60
2022/07/15 02:57:19;;;;;;;3.75;0.85;;;;;;;22.64;43.17;102195.19;5083572;28;20379;-59
2022/07/15 02:59:44;;;;;;;1.70;1.13;;;;;;;22.40;43.19;102150.69;5083204;28;20025;-59
2022/07/15 03:02:10;;;;;;;2.45;0.75;;;;;;;22.42;43.18;102156.78;5084557;28;20020;-61
2022/07/15 03:04:35;;;;;;;3.42;0.98;;;;;;;22.61;43.22;102196.38;5083835;28;20032;-60
2022/07/15 03:07:01;;;;;;;3.53;1.50;;;;;;;22.61;43.19;102199.06;5083481;28;20021;-60
2022/07/15 03:09:26;;;;;;;2.67;0.98;;;;;;;22.60;43.23;102199.22;5083701;28;20028;-60
2022/07/15 03:11:51;;;;;;;2.38;1.00;;;;;;;22.60;43.54;102208.22;5064537;28;20461;-60
2022/07/15 03:14:16;;;;;;;3.13;1.05;;;;;;;22.39;43.40;102178.81;5064212;28;20035;-60
2022/07/15 03:16:42;;;;;;;2.85;1.05;;;;;;;22.60;43.59;102201.94;5064583;28;20040;-60
2022/07/15 03:19:08;;;;;;;2.17;0.95;;;;;;;22.59;43.36;102217.34;5064480;28;20045;-60
2022/07/15 03:21:33;;;;;;;2.33;0.80;;;;;;;22.39;43.55;102189.66;5064185;28;20029;-60
2022/07/15 03:23:58;;;;;;;3.22;1.15;;;;;;;22.57;43.62;102221.25;5064292;28;20063;-60
2022/07/15 03:26:24;;;;;;;3.53;1.17;;;;;;;22.56;43.44;102214.97;5064287;28;20025;-61
2022/07/15 03:28:49;;;;;;;3.13;0.95;;;;;;;22.57;43.62;102218.53;5062592;28;20030;-60
2022/07/15 03:31:14;;;;;;;2.47;1.15;;;;;;;22.57;43.61;102223.97;5062868;28;20489;-61
2022/07/15 03:33:40;;;;;;;4.18;1.10;;;;;;;22.34;43.53;102191.97;5064280;28;20367;-60
2022/07/15 03:36:05;;;;;;;4.85;1.38;;;;;;;22.52;43.69;102216.31;5064092;28;20035;-60
2022/07/15 03:38:31;;;;;;;3.08;1.10;;;;;;;22.55;43.79;102220.53;5064085;28;20049;-61
2022/07/15 03:40:56;;;;;;;2.75;0.80;;;;;;;22.54;43.87;102218.84;5062841;28;20025;-60
2022/07/15 03:43:23;;;;;;;2.17;0.80;;;;;;;22.54;43.61;102219.69;5063256;28;20029;-59
2022/07/15 03:45:49;;;;;;;2.43;0.70;;;;;;;22.55;43.57;102234.09;5026745;28;1042924;-60
2022/07/15 03:48:14;;;;;;;3.05;1.05;;;;;;;22.54;43.78;102235.13;5064994;28;20502;-59
2022/07/15 03:50:39;;;;;;;1.60;0.90;;;;;;;22.53;43.81;102234.28;5063905;28;20021;-60
2022/07/15 03:53:05;;;;;;;3.58;1.10;;;;;;;22.53;43.68;102244.28;5063651;28;20093;-61
2022/07/15 03:55:30;;;;;;;3.85;0.90;;;;;;;22.29;43.73;102205.16;5065060;28;20032;-60
2022/07/15 03:57:56;;;;;;;2.35;0.73;;;;;;;22.53;43.82;102244.28;5064275;28;20021;-60
2022/07/15 04:00:21;;;;;;;1.67;0.80;;;;;;;22.29;44.11;102210.56;5047032;28;20025;-60
2022/07/15 04:02:47;;;;;;;4.13;1.30;;;;;;;22.52;43.87;102254.25;5063192;28;20029;-60
2022/07/15 04:05:12;;;;;;;2.45;0.88;;;;;;;22.53;44.11;102255.09;5064985;28;20234;-60
2022/07/15 04:07:37;;;;;;;2.72;0.80;;;;;;;22.48;44.00;102250.16;5064941;28;20021;-60
2022/07/15 04:10:03;;;;;;;1.95;0.70;;;;;;;22.52;43.83;102256.13;5067681;28;20350;-59
2022/07/15 04:12:29;;;;;;;1.83;0.90;;;;;;;22.49;43.92;102245.59;5083017;28;20036;-60
2022/07/15 04:14:54;;;;;;;2.10;0.90;;;;;;;22.53;44.04;102255.09;5083137;28;20025;-60
2022/07/15 04:17:20;;;;;;;4.10;1.20;;;;;;;22.43;44.00;102250.66;5083459;28;20033;-61
2022/07/15 04:19:46;;;;;;;2.38;1.00;;;;;;;22.28;43.92;102232.41;5084618;28;20035;-59
2022/07/15 04:22:11;;;;;;;3.28;1.05;;;;;;;22.30;44.06;102233.97;5084488;28;20020;-59
2022/07/15 04:24:36;;;;;;;3.25;0.88;;;;;;;22.51;44.32;102267.94;5083530;28;20052;-60
2022/07/15 04:27:01;;;;;;;3.95;0.98;;;;;;;22.29;44.10;102236.81;5083354;28;20497;-60
2022/07/15 04:29:27;;;;;;;3.05;1.00;;;;;;;22.32;43.79;102237.34;5084269;28;20024;-60
2022/07/15 04:31:52;;;;;;;3.65;1.15;;;;;;;22.50;43.89;102268.97;5084343;28;20119;-61
2022/07/15 04:34:17;;;;;;;3.15;1.10;;;;;;;22.50;44.12;102272.53;5083553;28;20046;-61
2022/07/15 04:36:42;;;;;;;4.88;0.95;;;;;;;22.49;43.88;102265.41;5083118;28;20028;-59
2022/07/15 04:39:08;;;;;;;1.73;0.82;;;;;;;22.49;44.08;102264.56;5084729;28;20159;-59
2022/07/15 04:41:33;;;;;;;2.15;0.90;;;;;;;22.30;43.92;102236.69;5086755;28;20036;-61
2022/07/15 04:43:58;;;;;;;3.10;1.08;;;;;;;22.49;44.33;102278.97;5087736;28;20031;-61
2022/07/15 04:46:23;;;;;;;3.60;1.13;;;;;;;22.49;44.15;102281.69;5088115;28;20044;-60
2022/07/15 04:51:33;;;;;;;3.75;1.10;;;;;;;22.49;44.22;102278.97;5087683;28;20032;-60
2022/07/15 04:53:58;;;;;;;2.25;0.90;;;;;;;22.46;43.96;102272.00;5086806;28;20024;-60
2022/07/15 04:56:23;;;;;;;2.75;1.00;;;;;;;22.48;44.20;102284.56;5087663;28;20024;-60
2022/07/15 04:58:48;;;;;;;2.55;0.98;;;;;;;22.46;44.35;102282.00;5087411;28;20120;-60
2022/07/15 05:01:14;;;;;;;3.58;1.17;;;;;;;22.28;44.24;102254.09;5086419;28;20081;-60
2022/07/15 05:03:39;;;;;;;3.95;1.00;;;;;;;22.46;44.17;102284.69;5087351;28;20049;-60
2022/07/15 05:06:05;;;;;;;2.58;0.90;;;;;;;22.16;44.32;102242.66;5080089;28;20126;-61
2022/07/15 05:08:30;;;;;;;2.45;1.00;;;;;;;22.46;44.22;102284.69;5047345;28;20017;-60
2022/07/15 05:10:55;;;;;;;2.75;1.13;;;;;;;22.45;44.35;102286.56;5067858;28;20028;-60
2022/07/15 05:13:21;;;;;;;1.73;0.70;;;;;;;22.22;44.33;102247.47;5085262;28;20031;-60
2022/07/15 05:15:46;;;;;;;3.80;1.10;;;;;;;22.43;44.12;102291.31;5087266;28;20493;-60
2022/07/15 05:18:11;;;;;;;3.47;1.10;;;;;;;22.23;44.33;102257.28;5069002;28;20024;-60
2022/07/15 05:20:37;;;;;;;3.40;0.73;;;;;;;22.44;44.25;102284.03;5087515;28;20028;-60
2022/07/15 05:23:03;;;;;;;4.28;0.90;;;;;;;22.44;44.10;102284.03;5086960;28;20036;-60
2022/07/15 05:25:28;;;;;;;1.70;0.70;;;;;;;22.19;44.25;102245.91;5086043;28;20027;-60
2022/07/15 05:27:54;;;;;;;2.55;0.80;;;;;;;22.43;44.45;102283.16;5086625;28;20107;-60
2022/07/15 05:30:19;;;;;;;2.08;1.02;;;;;;;22.43;44.41;102285.03;5087279;28;20026;-61
2022/07/15 05:32:45;;;;;;;1.98;0.80;;;;;;;22.39;44.14;102284.50;5086914;28;20028;-60
2022/07/15 05:35:14;;;;;;;3.83;0.98;;;;;;;22.15;44.20;102244.53;5087147;28;20095;-61
2022/07/15 05:37:40;;;;;;;4.70;1.30;;;;;;;22.43;44.24;102290.47;5086662;28;20025;-60
2022/07/15 05:40:07;;;;;;;3.88;1.00;;;;;;;22.19;44.30;102253.19;5085571;28;20063;-60
2022/07/15 05:42:32;;;;;;;3.28;0.80;;;;;;;22.44;44.46;102298.41;5086229;28;20028;-60
2022/07/15 05:44:57;;;;;;;2.35;0.85;;;;;;;22.43;44.29;102294.00;5085234;28;20111;-59
2022/07/15 05:47:23;;;;;;;3.60;0.90;;;;;;;22.24;44.31;102263.53;5085332;28;20039;-60
2022/07/15 05:49:48;;;;;;;3.97;0.88;;;;;;;22.21;44.43;102257.41;5086630;28;20060;-60
2022/07/15 05:52:13;;;;;;;2.63;0.95;;;;;;;22.25;44.29;102259.81;5084113;28;20123;-60
2022/07/15 05:54:38;;;;;;;3.33;1.05;;;;;;;22.26;44.27;102262.38;5086520;28;20029;-61
2022/07/15 05:57:04;;;;;;;4.10;0.80;;;;;;;22.43;44.15;102290.47;5086308;28;20034;-60
2022/07/15 05:59:29;;;;;;;1.38;0.80;;;;;;;22.40;44.16;102288.06;5067999;28;20435;-60
2022/07/15 06:01:55;;;;;;;2.72;0.80;;;;;;;22.19;44.31;102251.31;5084878;28;20034;-60
2022/07/15 06:04:20;;;;;;;2.35;0.93;;;;;;;22.43;44.13;102296.72;5068632;28;20024;-60
2022/07/15 06:06:45;;;;;;;3.35;1.00;;;;;;;22.44;44.21;102297.56;5084802;28;20027;-60
2022/07/15 06:09:11;;;;;;;2.03;0.85;;;;;;;22.42;44.06;102286.03;5085274;28;20035;-60
2022/07/15 06:11:36;;;;;;;1.70;0.73;;;;;;;22.43;44.27;102285.88;5067661;28;20425;-60
2022/07/15 06:14:03;;;;;;;2.70;0.80;;;;;;;22.42;44.42;102275.19;5085840;28;20083;-59
2022/07/15 06:16:28;;;;;;;2.92;1.02;;;;;;;22.41;44.29;102284.31;5084932;28;20054;-61
2022/07/15 06:18:54;;;;;;;2.33;1.02;;;;;;;22.43;44.18;102283.16;5084912;28;20032;-60
2022/07/15 06:21:19;;;;;;;1.88;0.90;;;;;;;22.43;44.11;102283.16;5084907;28;20031;-60
2022/07/15 06:23:44;;;;;;;1.38;0.73;;;;;;;22.22;44.25;102252.88;5085951;28;20017;-60
2022/07/15 06:26:10;;;;;;;2.00;0.68;;;;;;;22.41;43.69;102281.63;5084814;28;20035;-59
2022/07/15 06:28:35;;;;;;;2.13;0.77;;;;;;;22.05;43.76;102223.94;5085518;28;20025;-60
2022/07/15 06:31:01;;;;;;;2.60;0.80;;;;;;;22.39;43.54;102270.94;5084906;28;20035;-60
2022/07/15 06:33:27;;;;;;;2.53;0.70;;;;;;;22.41;43.45;102278.91;5085902;28;20051;-60
2022/07/15 06:35:52;;;;;;;1.65;0.80;;;;;;;22.39;43.19;102284.50;5084525;28;20028;-60
2022/07/15 06:38:17;;;;;;;1.77;0.80;;;;;;;22.41;43.32;102287.03;5084609;28;20051;-60
2022/07/15 06:40:43;;;;;;;3.08;0.90;;;;;;;22.37;43.41;102282.94;5085553;28;20044;-60
2022/07/15 06:43:08;;;;;;;1.98;0.77;;;;;;;22.41;43.18;102285.19;5084450;28;20043;-60
2022/07/15 06:45:33;;;;;;;2.92;0.90;;;;;;;22.37;43.39;102281.06;5085577;28;20052;-60
2022/07/15 06:47:59;;;;;;;1.67;0.70;;;;;;;22.40;43.26;102288.91;5085395;28;20016;-60
2022/07/15 06:50:25;;;;;;;2.63;0.90;;;;;;;22.41;42.99;102284.31;5084352;28;20020;-59
2022/07/15 06:52:50;;;;;;;4.07;0.63;;;;;;;22.41;43.07;102278.91;5067163;28;20028;-60
2022/07/15 06:55:15;;;;;;;2.47;0.93;;;;;;;22.41;42.79;102290.59;5085569;28;20024;-61
2022/07/15 06:57:41;;;;;;;2.40;0.68;;;;;;;22.40;42.58;102282.63;5085193;28;20028;-60
2022/07/15 07:00:08;;;;;;;1.92;0.70;;;;;;;22.41;42.96;102285.19;5084459;28;20058;-60
2022/07/15 07:02:33;;;;;;;1.48;1.10;;;;;;;22.36;42.64;102270.41;5067137;28;20393;-60
2022/07/15 07:04:59;;;;;;;1.73;0.70;;;;;;;22.20;42.74;102255.72;5085463;28;20030;-60
2022/07/15 07:07:25;;;;;;;2.53;1.27;;;;;;;22.42;42.45;102289.56;5085337;28;20107;-60
2022/07/15 07:09:50;;;;;;;1.95;0.50;;;;;;;22.41;42.37;102287.88;5082565;28;20029;-59
2022/07/15 07:12:16;;;;;;;1.42;0.70;;;;;;;22.42;42.60;102286.03;5063647;28;20052;-60
2022/07/15 07:14:41;;;;;;;1.48;0.73;;;;;;;22.43;42.54;102287.75;5063307;28;20111;-60
2022/07/15 07:17:06;;;;;;;1.75;0.50;;;;;;;22.44;42.63;102298.41;5065139;28;20093;-60
2022/07/15 07:19:31;;;;;;;2.17;0.68;;;;;;;22.44;42.36;102290.28;5063883;28;20029;-60
2022/07/15 07:21:57;;;;;;;3.17;0.95;;;;;;;22.45;42.28;102296.56;5064979;28;20033;-60
2022/07/15 07:24:22;;;;;;;1.95;0.70;;;;;;;22.12;42.28;102250.25;5065208;28;20049;-60
2022/07/15 07:26:47;;;;;;;0.75;0.40;;;;;;;22.46;42.11;102296.38;5064883;28;20024;-59
2022/07/15 07:29:14;;;;;;;0.73;0.50;;;;;;;22.48;42.35;102300.81;5064502;28;20147;-60
2022/07/15 07:31:39;;;;;;;1.10;0.65;;;;;;;22.25;42.17;102259.81;5064738;28;20024;-60
2022/07/15 07:34:04;;;;;;;1.88;0.85;;;;;;;22.49;42.07;102300.66;5063787;28;20033;-60
2022/07/15 07:36:30;;;;;;;2.05;0.60;;;;;;;22.26;42.04;102267.81;5064668;28;20088;-60
2022/07/15 07:38:55;;;;;;;2.15;0.55;;;;;;;22.48;42.23;102300.81;5064703;28;20389;-61
2022/07/15 07:41:21;;;;;;;2.08;0.90;;;;;;;22.50;42.10;102298.78;5063627;28;20021;-61
2022/07/15 07:43:46;;;;;;;1.73;0.70;;;;;;;22.50;41.90;102296.91;5064225;28;20024;-60
2022/07/15 07:46:12;;;;;;;1.63;0.68;;;;;;;22.32;41.88;102263.59;5064723;28;20041;-61
2022/07/15 07:48:39;;;;;;;1.83;0.60;;;;;;;22.48;41.92;102292.69;5063370;28;20363;-61
2022/07/15 07:51:04;;;;;;;1.35;0.60;;;;;;;22.29;41.77;102263.91;5063733;28;20040;-60
2022/07/15 07:53:30;;;;;;;1.15;0.50;;;;;;;22.52;41.44;102296.78;5063469;28;20025;-60
2022/07/15 07:55:56;;;;;;;1.20;0.50;;;;;;;22.41;41.44;102276.19;5064785;28;20036;-60
2022/07/15 07:58:21;;;;;;;1.35;0.60;;;;;;;22.52;41.20;102302.19;5064618;28;20043;-60
2022/07/15 08:00:46;;;;;;;1.35;0.40;;;;;;;22.52;41.34;102294.06;5063635;28;20529;-60
2022/07/15 08:03:12;;;;;;;1.48;0.50;;;;;;;22.55;40.95;102291.03;5063418;28;20029;-60
2022/07/15 08:05:38;;;;;;;2.40;0.47;;;;;;;22.55;41.13;102296.44;5063394;28;20473;-60
2022/07/15 08:08:06;;;;;;;1.77;0.70;;;;;;;22.56;41.00;102296.31;5064949;28;20027;-60
2022/07/15 08:10:32;;;;;;;1.42;0.70;;;;;;;22.32;41.04;102258.19;5070420;28;20028;-61
2022/07/15 08:12:57;;;;;;;1.48;0.50;;;;;;;22.51;41.02;102278.78;5082368;28;20024;-60
2022/07/15 08:15:22;;;;;;;1.67;0.40;;;;;;;22.59;41.20;102298.66;5085837;28;20032;-60
2022/07/15 08:17:48;;;;;;;1.98;0.50;;;;;;;22.43;40.94;102260.66;5086893;28;20195;-60
2022/07/15 08:20:13;;;;;;;0.68;0.40;;;;;;;22.65;40.63;102300.75;5070461;28;20017;-60
2022/07/15 08:22:38;;;;;;;1.08;0.40;;;;;;;22.67;40.52;102293.31;5070051;28;20025;-59
2022/07/15 08:25:04;;;;;;;2.85;0.50;;;;;;;22.45;40.52;102262.16;5087097;28;20032;-60
2022/07/15 08:27:30;;;;;;;2.88;0.63;;;;;;;22.49;40.37;102267.28;5087096;28;20020;-60
2022/07/15 08:29:55;;;;;;;1.20;0.68;;;;;;;22.69;40.46;102294.00;5086593;28;20024;-60
2022/07/15 08:32:21;;;;;;;1.20;0.50;;;;;;;22.46;40.24;102260.31;5070079;28;20086;-60
2022/07/15 08:34:47;;;;;;;0.88;0.40;;;;;;;22.71;40.18;102294.69;5088313;28;20107;-60
2022/07/15 08:37:12;;;;;;;2.42;0.50;;;;;;;22.73;40.58;102289.13;5086685;28;20025;-60
2022/07/15 08:39:37;;;;;;;0.63;0.40;;;;;;;22.54;40.28;102254.09;5088204;28;20023;-60
2022/07/15 08:42:04;;;;;;;0.70;0.40;;;;;;;22.56;40.20;102261.06;5086163;28;20031;-60
2022/07/15 08:44:29;;;;;;;1.17;0.32;;;;;;;22.60;40.41;102265.16;5086248;28;20055;-59
2022/07/15 08:47:03;;;;;;;2.05;0.60;;;;;;;22.81;40.07;102289.16;5088000;28;20051;-61
2022/07/15 08:49:30;;;;;;;0.50;0.20;;;;;;;22.60;40.18;102265.16;5086583;28;20036;-61
2022/07/15 08:51:57;;;;;;;0.73;0.40;;;;;;;22.85;40.26;102295.97;5086531;28;20029;-60
2022/07/15 08:54:23;;;;;;;0.52;0.35;;;;;;;22.67;40.15;102268.06;5088113;28;20025;-60
2022/07/15 08:56:48;;;;;;;0.47;0.28;;;;;;;22.84;40.07;102298.81;5086364;28;20021;-61
2022/07/15 08:59:13;;;;;;;0.50;0.30;;;;;;;22.85;40.06;102297.81;5086001;28;20097;-60
2022/07/15 09:01:45;;;;;;;3.70;0.82;;;;;;;22.84;39.79;102304.25;5086260;28;20025;-60
2022/07/15 09:04:10;;;;;;;1.73;0.40;;;;;;;22.79;39.56;102298.47;5087794;28;20085;-61
2022/07/15 09:06:46;;;;;;;0.60;0.30;;;;;;;22.84;40.02;102309.69;5086101;28;20444;-64
2022/07/15 09:09:17;;;;;;;0.70;0.38;;;;;;;22.83;39.71;102307.97;5087666;28;20033;-60
2022/07/15 09:11:43;;;;;;;1.23;0.40;;;;;;;22.58;39.93;102267.16;5068245;28;20036;-60
2022/07/15 09:14:12;;;;;;;0.93;0.30;;;;;;;22.58;39.97;102263.59;5066732;28;20052;-60
2022/07/15 09:16:37;;;;;;;0.77;0.47;;;;;;;22.82;39.95;102306.28;5065708;28;20057;-60
2022/07/15 09:19:02;;;;;;;1.38;0.50;;;;;;;22.83;39.90;102299.84;5065819;28;20035;-60
2022/07/15 09:21:27;;;;;;;0.82;0.40;;;;;;;22.83;39.69;102300.69;5066034;28;20025;-61
2022/07/15 09:23:54;;;;;;;0.88;0.30;;;;;;;22.83;39.94;102283.56;5066913;28;20115;-60
2022/07/15 09:26:33;;;;;;;2.85;0.40;;;;;;;22.82;39.85;102288.16;5065617;28;20432;-60
2022/07/15 09:29:00;;;;;;;0.73;0.43;;;;;;;22.88;39.74;102292.06;5065573;28;20474;-60
2022/07/15 09:34:16;;;;;;;1.05;0.40;;;;;;;22.89;40.19;102291.91;5066210;28;20063;-60
2022/07/15 09:36:46;;;;;;;0.73;0.30;;;;;;;22.92;39.93;102290.78;5066700;28;20017;-60
2022/07/15 09:39:11;;;;;;;1.05;0.40;;;;;;;22.77;39.99;102263.38;5067086;28;20025;-60
2022/07/15 09:41:40;;;;;;;2.28;0.50;;;;;;;22.71;39.75;102253.16;5066614;28;20032;-60
2022/07/15 09:44:10;;;;;;;1.05;0.40;;;;;;;22.92;39.42;102296.19;5064856;28;20090;-60
2022/07/15 09:46:51;;;;;;;1.40;0.40;;;;;;;22.89;39.42;102289.19;5066686;28;20053;-60
2022/07/15 09:49:34;;;;;;;0.75;0.40;;;;;;;22.89;39.37;102293.75;5065564;28;20116;-60
2022/07/15 09:52:10;;;;;;;0.93;0.40;;;;;;;22.88;39.50;102298.34;5065000;28;20021;-60
2022/07/15 09:54:43;;;;;;;3.05;0.68;;;;;;;22.87;39.80;102287.66;5066563;28;20028;-59
2022/07/15 09:57:11;;;;;;;1.42;0.50;;;;;;;22.86;39.63;102288.69;5066077;28;20041;-60
2022/07/15 09:59:37;;;;;;;0.82;0.55;;;;;;;22.82;39.88;102284.59;5066029;28;20025;-60
2022/07/15 10:02:03;;;;;;;1.13;0.45;;;;;;;22.87;39.83;102290.38;5064771;28;20033;-61
2022/07/15 10:04:29;;;;;;;0.38;0.22;;;;;;;22.89;39.81;102285.63;5065321;28;20059;-60
2022/07/15 10:06:57;;;;;;;1.27;0.40;;;;;;;22.71;40.59;102251.31;5066210;28;20078;-60
2022/07/15 10:09:25;;;;;;;1.13;0.30;;;;;;;22.92;40.68;102288.06;5065251;28;20549;-60
2022/07/15 10:11:52;;;;;;;;;;;;;;;22.93;40.58;102287.88;5083791;28;20056;-60
2022/07/15 10:14:59;;;;;;;0.52;0.30;;;;;;;22.98;41.02;102286.56;5084359;28;19908;-60
2022/07/15 10:17:33;;;;;;;0.60;0.30;;;;;;;23.00;41.43;102284.53;5063505;28;20037;-60
2022/07/15 10:20:23;;;;;;;0.20;0.20;;;;;;;23.02;41.98;102283.34;5046967;28;20029;-60
2022/07/15 10:22:51;;;;;;;0.50;0.30;;;;;;;23.03;41.89;102287.78;5063322;28;20043;-60
2022/07/15 10:25:28;;;;;;;1.08;0.55;;;;;;;23.03;41.97;102279.66;5063952;28;20032;-60
2022/07/15 10:28:05;;;;;;;0.50;0.30;;;;;;;23.04;42.05;102275.06;5063290;28;20036;-59
2022/07/15 10:30:32;;;;;;;0.75;0.45;;;;;;;23.03;42.21;102273.38;5063598;28;20057;-60
2022/07/15 10:33:03;;;;;;;1.83;0.43;;;;;;;23.04;41.91;102265.06;5046543;28;20025;-60
2022/07/15 10:35:36;;;;;;;1.55;0.40;;;;;;;23.00;42.04;102263.69;5063802;28;20040;-61
2022/07/15 10:38:28;;;;;;;1.20;0.30;;;;;;;23.03;41.94;102266.09;5062751;28;20025;-60
2022/07/15 10:41:02;;;;;;;2.67;0.40;;;;;;;22.80;42.14;102232.38;5046853;28;20076;-60
2022/07/15 10:43:43;;;;;;;0.70;0.43;;;;;;;23.03;42.03;102278.78;5062197;28;20033;-60
2022/07/15 10:46:18;;;;;;;1.27;0.40;;;;;;;23.02;41.96;102267.06;5063118;28;20056;-61
2022/07/15 10:48:43;;;;;;;1.20;0.43;;;;;;;23.01;42.39;102261.81;5063262;28;20029;-60
2022/07/15 10:51:09;;;;;;;0.93;0.40;;;;;;;22.99;42.36;102255.72;5046760;28;20031;-60
2022/07/15 10:53:43;;;;;;;1.92;0.73;;;;;;;23.02;42.47;102255.38;5049689;28;20040;-60
2022/07/15 10:56:31;;;;;;;0.93;0.30;;;;;;;23.03;42.40;102257.09;5084412;28;20096;-61
2022/07/15 10:59:09;;;;;;;0.50;0.30;;;;;;;23.05;42.50;102250.47;5083632;28;20028;-61
2022/07/15 11:01:38;;;;;;;1.80;0.40;;;;;;;22.87;42.53;102211.72;5085319;28;20477;-60
2022/07/15 11:04:21;;;;;;;1.05;0.30;;;;;;;23.09;42.23;102241.00;5084079;28;20105;-60
2022/07/15 11:07:09;;;;;;;0.68;0.35;;;;;;;23.11;42.29;102227.28;5085083;28;20020;-60
2022/07/15 11:09:59;;;;;;;1.17;0.40;;;;;;;23.11;42.58;102230.00;5085481;28;20088;-60
2022/07/15 11:12:30;;;;;;;0.95;0.35;;;;;;;23.11;42.55;102222.72;5044681;28;20030;-60
2022/07/15 11:15:00;;;;;;;1.08;0.30;;;;;;;23.10;42.48;102234.56;5044691;28;20491;-61
2022/07/15 11:17:28;;;;;;;0.77;0.30;;;;;;;23.10;42.38;102233.72;5045183;28;20025;-60
2022/07/15 11:20:15;;;;;;;0.60;0.30;;;;;;;22.73;42.60;102175.25;5045074;28;20032;-61
2022/07/15 11:22:42;;;;;;;1.27;0.43;;;;;;;22.86;42.80;102199.19;5043309;28;20025;-61
2022/07/15 11:25:16;;;;;;;1.60;0.40;;;;;;;23.10;42.30;102233.72;5044111;28;20116;-61
2022/07/15 11:27:54;;;;;;;1.30;0.32;;;;;;;23.10;42.61;102226.41;5044865;28;20041;-61
2022/07/15 11:30:20;;;;;;;0.73;0.40;;;;;;;23.07;42.43;102212.34;5043353;28;20492;-60
2022/07/15 11:32:45;;;;;;;1.10;0.32;;;;;;;23.11;42.75;102219.16;5043346;28;20030;-59
2022/07/15 11:35:10;;;;;;;0.75;0.30;;;;;;;23.10;42.89;102215.56;5045235;28;20056;-60